createdAt,value
2023-01-11T00:00:51.712Z,81.60
2023-01-11T00:03:27.125Z,81.50
2023-01-11T00:06:15.496Z,81.53
2023-01-11T00:08:50.027Z,81.42
2023-01-11T00:11:37.717Z,81.40
2023-01-11T00:14:15.004Z,81.51
2023-01-11T00:17:02.497Z,81.70
2023-01-11T00:19:37.147Z,81.65
2023-01-11T00:22:24.697Z,81.62
2023-01-11T00:25:06.509Z,81.64
2023-01-11T00:27:49.658Z,81.70
2023-01-11T00:30:30.517Z,81.70
2023-01-11T00:33:12.493Z,81.75
2023-01-11T00:35:54.485Z,81.75
2023-01-11T00:38:46.850Z,81.64
2023-01-11T00:41:49.502Z,81.55
2023-01-11T00:44:50.769Z,81.36
2023-01-11T00:47:52.690Z,81.22
2023-01-11T00:50:37.615Z,81.24
2023-01-11T00:53:18.489Z,81.29
2023-01-11T00:55:59.629Z,81.19
2023-01-11T00:58:40.475Z,81.14
2023-01-11T01:01:21.707Z,80.87
2023-01-11T01:04:04.695Z,80.85
2023-01-11T01:06:53.710Z,80.81
2023-01-11T01:09:29.071Z,80.83
2023-01-11T01:12:17.476Z,80.85
2023-01-11T01:14:52.120Z,80.83
2023-01-11T01:17:42.494Z,80.94
2023-01-11T01:20:38.483Z,80.90
2023-01-11T01:23:26.707Z,80.86
2023-01-11T01:26:02.807Z,80.91
2023-01-11T01:28:51.714Z,81.01
2023-01-11T01:31:33.951Z,81.09
2023-01-11T01:34:23.476Z,81.35
2023-01-11T01:36:57.898Z,81.21
2023-01-11T01:39:46.517Z,81.27
2023-01-11T01:42:30.486Z,81.14
2023-01-11T01:45:36.478Z,81.27
2023-01-11T01:48:27.483Z,81.34
2023-01-11T01:51:03.607Z,81.38
2023-01-11T01:53:54.686Z,81.47
2023-01-11T01:56:40.691Z,81.39
2023-01-11T01:59:30.469Z,81.31
2023-01-11T02:02:12.489Z,81.16
2023-01-11T02:05:10.464Z,81.19
2023-01-11T02:07:58.469Z,81.31
2023-01-11T02:10:33.602Z,81.44
2023-01-11T02:13:21.688Z,81.38
2023-01-11T02:16:08.809Z,81.36
2023-01-11T02:18:56.672Z,81.08
2023-01-11T02:21:54.470Z,81.05
2023-01-11T02:25:13.464Z,81.20
2023-01-11T02:28:18.472Z,81.10
2023-01-11T02:31:05.673Z,80.97
2023-01-11T02:33:53.697Z,80.75
2023-01-11T02:36:28.813Z,80.60
2023-01-11T02:39:34.665Z,80.50
2023-01-11T02:43:16.623Z,80.41
2023-01-11T02:46:23.560Z,80.51
2023-01-11T02:49:23.470Z,80.61
2023-01-11T02:52:25.460Z,80.71
2023-01-11T02:55:16.471Z,80.77
2023-01-11T02:57:52.801Z,80.71
2023-01-11T03:00:44.469Z,80.91
2023-01-11T03:03:29.787Z,80.84
2023-01-11T03:06:18.481Z,80.86
2023-01-11T03:09:11.683Z,80.82
2023-01-11T03:12:18.485Z,80.81
2023-01-11T03:15:37.676Z,80.85
2023-01-11T03:18:46.474Z,80.89
2023-01-11T03:21:57.460Z,80.99
2023-01-11T03:25:04.451Z,81.00
2023-01-11T03:27:57.476Z,81.09
2023-01-11T03:31:12.695Z,81.17
2023-01-11T03:34:09.593Z,81.29
2023-01-11T03:36:59.452Z,81.29
2023-01-11T03:40:19.471Z,81.34
2023-01-11T03:43:11.028Z,81.40
2023-01-11T03:46:08.468Z,81.30
2023-01-11T03:48:47.080Z,81.21
2023-01-11T03:51:38.468Z,81.15
2023-01-11T03:54:16.599Z,81.07
2023-01-11T03:57:10.443Z,80.93
2023-01-11T03:59:45.123Z,80.75
2023-01-11T04:02:33.446Z,80.63
2023-01-11T04:05:10.267Z,80.61
2023-01-11T04:07:58.460Z,80.50
2023-01-11T04:10:32.860Z,80.54
2023-01-11T04:13:20.466Z,80.58
2023-01-11T04:15:54.842Z,80.56
2023-01-11T04:18:42.674Z,80.49
2023-01-11T04:21:31.447Z,80.40
2023-01-11T04:24:06.633Z,80.51
2023-01-11T04:27:14.624Z,80.30
2023-01-11T04:29:53.557Z,80.23
2023-01-11T04:32:41.459Z,80.51
2023-01-11T04:35:16.612Z,80.66
2023-01-11T04:38:04.455Z,80.86
2023-01-11T04:40:45.447Z,80.79
2023-01-11T04:43:40.457Z,80.70
2023-01-11T04:46:28.441Z,80.60
2023-01-11T04:49:02.570Z,80.42
2023-01-11T04:51:50.444Z,80.41
2023-01-11T04:54:25.576Z,80.49
2023-01-11T04:57:14.456Z,80.15
2023-01-11T04:59:50.851Z,80.31
2023-01-11T05:02:39.431Z,80.61
2023-01-11T05:05:21.459Z,80.87
2023-01-11T05:08:16.565Z,81.01
2023-01-11T05:11:06.531Z,81.21
2023-01-11T05:13:44.528Z,81.26
2023-01-11T05:16:32.611Z,81.41
2023-01-11T05:19:27.500Z,81.34
2023-01-11T05:22:16.500Z,81.26
2023-01-11T05:24:50.838Z,81.31
2023-01-11T05:27:39.705Z,81.40
2023-01-11T05:30:16.658Z,81.34
2023-01-11T05:33:04.496Z,81.64
2023-01-11T05:35:45.534Z,81.83
2023-01-11T05:38:40.512Z,81.70
2023-01-11T05:41:31.524Z,81.72
2023-01-11T05:44:25.032Z,81.79
2023-01-11T05:47:12.492Z,81.80
2023-01-11T05:49:46.845Z,81.66
2023-01-11T05:52:34.512Z,82.09
2023-01-11T05:55:09.949Z,82.36
2023-01-11T05:57:58.711Z,82.52
2023-01-11T06:00:33.661Z,82.43
2023-01-11T06:03:21.778Z,82.03
2023-01-11T06:06:03.483Z,82.04
2023-01-11T06:08:58.499Z,81.96
2023-01-11T06:11:46.512Z,81.80
2023-01-11T06:14:21.619Z,81.79
2023-01-11T06:17:09.543Z,82.07
2023-01-11T06:19:51.532Z,81.91
2023-01-11T06:22:46.517Z,81.85
2023-01-11T06:25:41.492Z,81.80
2023-01-11T06:28:29.505Z,81.96
2023-01-11T06:31:05.688Z,81.87
2023-01-11T06:33:54.506Z,81.69
2023-01-11T06:36:29.903Z,81.52
2023-01-11T06:39:17.565Z,81.37
2023-01-11T06:41:52.707Z,81.25
2023-01-11T06:44:40.536Z,81.21
2023-01-11T06:47:21.716Z,81.17
2023-01-11T06:50:03.507Z,81.31
2023-01-11T06:52:44.684Z,81.28
2023-01-11T06:55:26.495Z,81.33
2023-01-11T06:58:14.480Z,81.37
2023-01-11T07:00:49.242Z,81.25
2023-01-11T07:03:39.480Z,81.25
2023-01-11T07:06:14.263Z,81.10
2023-01-11T07:09:02.518Z,81.28
2023-01-11T07:11:39.385Z,81.12
2023-01-11T07:14:28.497Z,81.26
2023-01-11T07:17:09.489Z,81.19
2023-01-11T07:20:04.523Z,81.23
2023-01-11T07:22:52.570Z,81.64
2023-01-11T07:25:34.563Z,82.04
2023-01-11T07:28:29.564Z,82.08
2023-01-11T07:31:17.608Z,82.69
2023-01-11T07:33:52.634Z,82.67
2023-01-11T07:36:46.509Z,82.62
2023-01-11T07:39:26.850Z,82.63
2023-01-11T07:42:38.563Z,82.38
2023-01-11T07:45:34.377Z,82.44
2023-01-11T07:48:21.077Z,82.43
2023-01-11T07:51:09.461Z,82.53
2023-01-11T07:53:43.941Z,82.57
2023-01-11T07:56:31.588Z,82.31
2023-01-11T07:59:12.489Z,82.21
2023-01-11T08:01:53.577Z,81.86
2023-01-11T08:04:36.190Z,81.72
2023-01-11T08:07:19.071Z,81.57
2023-01-11T08:10:00.522Z,81.37
2023-01-11T08:13:00.230Z,80.97
2023-01-11T08:15:49.599Z,80.76
2023-01-11T08:18:37.497Z,80.74
2023-01-11T08:21:32.601Z,80.59
2023-01-11T08:24:20.511Z,80.36
2023-01-11T08:26:55.685Z,80.46
2023-01-11T08:29:44.505Z,80.30
2023-01-11T08:32:19.641Z,80.16
2023-01-11T08:35:07.578Z,80.04
2023-01-11T08:37:42.819Z,80.03
2023-01-11T08:40:32.522Z,79.96
2023-01-11T08:43:07.628Z,79.85
2023-01-11T08:45:57.750Z,79.78
2023-01-11T08:48:32.650Z,79.69
2023-01-11T08:51:22.531Z,79.70
2023-01-11T08:53:58.613Z,79.58
2023-01-11T08:56:46.525Z,79.31
2023-01-11T08:59:34.568Z,79.12
2023-01-11T09:02:16.469Z,78.87
2023-01-11T09:05:04.604Z,78.71
2023-01-11T09:07:45.580Z,78.78
2023-01-11T09:10:39.653Z,78.65
2023-01-11T09:13:21.548Z,78.56
2023-01-11T09:16:04.638Z,78.44
2023-01-11T09:18:45.544Z,78.36
2023-01-11T09:21:40.545Z,78.19
2023-01-11T09:24:35.484Z,77.88
2023-01-11T09:27:23.414Z,77.25
2023-01-11T09:29:57.721Z,76.90
2023-01-11T09:32:45.532Z,76.85
2023-01-11T09:35:21.019Z,76.93
2023-01-11T09:38:09.530Z,77.03
2023-01-11T09:41:03.448Z,76.90
2023-01-11T09:44:06.499Z,76.83
2023-01-11T09:46:58.519Z,76.37
2023-01-11T09:49:40.930Z,76.68
2023-01-11T09:52:35.463Z,76.47
2023-01-11T09:55:10.672Z,76.35
2023-01-11T09:58:15.501Z,76.01
2023-01-11T10:01:10.714Z,75.89
2023-01-11T10:04:06.477Z,75.73
2023-01-11T10:06:56.477Z,75.61
2023-01-11T10:18:29.326Z,74.29
2023-01-11T10:20:47.497Z,74.10
2023-01-11T10:24:21.526Z,73.57
2023-01-11T10:27:14.551Z,73.55
2023-01-11T10:30:13.564Z,74.02
2023-01-11T10:33:32.521Z,73.73
2023-01-11T10:36:29.315Z,73.95
2023-01-11T10:40:22.608Z,73.62
2023-01-11T10:43:10.467Z,73.27
2023-01-11T10:45:59.738Z,73.10
2023-01-11T10:48:44.579Z,72.65
2023-01-11T10:51:47.449Z,72.24
2023-01-11T10:54:37.514Z,71.77
2023-01-11T10:57:39.487Z,72.12
2023-01-11T11:00:51.514Z,72.28
2023-01-11T11:03:50.590Z,72.31
2023-01-11T11:06:46.427Z,72.31
2023-01-11T11:09:35.449Z,71.65
2023-01-11T11:12:54.090Z,71.41
2023-01-11T11:15:53.144Z,71.36
2023-01-11T11:18:35.921Z,71.26
2023-01-11T11:21:37.880Z,71.30
2023-01-11T11:24:30.430Z,71.02
2023-01-11T11:27:26.783Z,71.10
2023-01-11T11:30:21.744Z,71.11
2023-01-11T11:33:14.218Z,70.80
2023-01-11T11:36:11.442Z,70.49
2023-01-11T11:39:22.535Z,70.74
2023-01-11T11:42:24.454Z,70.63
2023-01-11T11:45:18.434Z,70.34
2023-01-11T11:48:14.675Z,69.99
2023-01-11T11:51:13.627Z,69.79
2023-01-11T11:53:56.543Z,69.86
2023-01-11T11:56:48.510Z,69.98
2023-01-11T11:59:40.435Z,70.15
2023-01-11T12:02:37.465Z,69.70
2023-01-11T12:05:32.434Z,69.44
2023-01-11T12:08:22.466Z,69.18
2023-01-11T12:11:09.553Z,69.16
2023-01-11T12:14:23.462Z,68.84
2023-01-11T12:17:00.837Z,68.71
2023-01-11T12:19:52.453Z,69.06
2023-01-11T12:22:32.623Z,68.18
2023-01-11T12:25:32.433Z,68.05
2023-01-11T12:28:18.777Z,68.43
2023-01-11T12:31:07.660Z,68.25
2023-01-11T12:33:52.460Z,68.02
2023-01-11T12:37:22.423Z,68.37
2023-01-11T12:40:10.470Z,69.17
2023-01-11T12:43:30.609Z,69.57
2023-01-11T12:46:29.714Z,69.77
2023-01-11T12:49:36.569Z,69.41
2023-01-11T12:52:46.455Z,69.60
2023-01-11T12:56:00.756Z,69.43
2023-01-11T12:59:04.403Z,69.67
2023-01-11T13:02:18.147Z,69.02
2023-01-11T13:05:23.647Z,68.80
2023-01-11T13:08:43.433Z,68.99
2023-01-11T13:11:59.775Z,68.91
2023-01-11T13:15:12.530Z,69.14
2023-01-11T13:18:08.444Z,68.89
2023-01-11T13:21:06.788Z,68.64
2023-01-11T13:24:10.934Z,68.59
2023-01-11T13:26:59.477Z,68.66
2023-01-11T13:29:49.571Z,68.90
2023-01-11T13:32:40.431Z,69.42
2023-01-11T13:35:33.419Z,69.25
2023-01-11T13:38:45.428Z,69.25
2023-01-11T13:41:29.556Z,69.23
2023-01-11T13:44:20.428Z,69.27
2023-01-11T13:47:43.628Z,69.38
2023-01-11T13:50:30.425Z,69.61
2023-01-11T13:53:33.436Z,69.28
2023-01-11T13:56:21.088Z,69.19
2023-01-11T13:59:26.781Z,69.02
2023-01-11T14:02:17.615Z,69.07
2023-01-11T14:05:06.624Z,69.20
2023-01-11T14:08:08.194Z,69.38
2023-01-11T14:11:17.561Z,69.65
2023-01-11T14:14:25.421Z,69.97
2023-01-11T14:17:21.573Z,70.15
2023-01-11T14:20:30.412Z,70.34
2023-01-11T14:23:25.440Z,70.47
2023-01-11T14:26:26.276Z,70.67
2023-01-11T14:29:37.453Z,70.98
2023-01-11T14:32:27.437Z,71.30
2023-01-11T14:35:34.427Z,71.52
2023-01-11T14:38:34.878Z,71.88
2023-01-11T14:41:09.575Z,72.19
2023-01-11T14:44:20.468Z,72.51
2023-01-11T14:47:20.409Z,72.76
2023-01-11T14:50:45.437Z,73.14
2023-01-11T14:53:33.501Z,73.54
2023-01-11T14:56:56.426Z,73.75
2023-01-11T14:59:46.415Z,73.99
2023-01-11T15:02:23.845Z,74.12
2023-01-11T15:05:12.499Z,74.51
2023-01-11T15:07:48.566Z,74.67
2023-01-11T15:10:45.520Z,74.73
2023-01-11T15:13:26.788Z,75.10
2023-01-11T15:16:43.494Z,75.27
2023-01-11T15:19:38.095Z,75.33
2023-01-11T15:22:40.468Z,75.59
2023-01-11T15:25:47.397Z,75.74
2023-01-11T15:28:57.433Z,75.77
2023-01-11T15:31:51.598Z,75.90
2023-01-11T15:34:45.462Z,75.92
2023-01-11T15:37:51.454Z,76.02
2023-01-11T15:40:47.558Z,76.30
2023-01-11T15:43:53.087Z,76.57
2023-01-11T15:47:00.549Z,76.82
2023-01-11T15:50:20.399Z,76.99
2023-01-11T15:53:59.447Z,77.06
2023-01-11T15:57:40.491Z,77.06
2023-01-11T16:01:02.568Z,77.35
2023-01-11T16:03:53.573Z,77.48
2023-01-11T16:06:44.563Z,77.71
2023-01-11T16:09:54.498Z,77.91
2023-01-11T16:12:43.457Z,78.05
2023-01-11T16:15:51.784Z,78.26
2023-01-11T16:19:08.483Z,78.45
2023-01-11T16:21:53.412Z,78.52
2023-01-11T16:24:45.412Z,78.52
2023-01-11T16:27:38.426Z,78.53
2023-01-11T16:30:18.436Z,78.69
2023-01-11T16:33:06.419Z,78.85
2023-01-11T16:35:41.278Z,78.82
2023-01-11T16:38:36.036Z,78.84
2023-01-11T16:41:19.410Z,78.96
2023-01-11T16:44:14.401Z,78.97
2023-01-11T16:47:10.419Z,78.95
2023-01-11T16:50:38.411Z,78.99
2023-01-11T16:53:20.392Z,79.11
2023-01-11T16:56:15.390Z,79.13
2023-01-11T16:59:13.855Z,79.24
2023-01-11T17:02:10.568Z,79.37
2023-01-11T17:05:01.392Z,79.42
2023-01-11T17:07:42.520Z,79.36
2023-01-11T17:10:35.429Z,79.47
2023-01-11T17:13:51.391Z,79.57
2023-01-11T17:16:52.480Z,79.64
2023-01-11T17:19:56.589Z,79.89
2023-01-11T17:22:51.388Z,80.02
2023-01-11T17:25:48.392Z,80.30
2023-01-11T17:28:38.431Z,80.39
2023-01-11T17:31:16.542Z,80.38
2023-01-11T17:34:17.929Z,80.35
2023-01-11T17:36:53.636Z,80.32
2023-01-11T17:39:44.605Z,80.20
2023-01-11T17:42:40.771Z,80.25
2023-01-11T17:45:31.629Z,80.31
2023-01-11T17:48:27.423Z,80.28
2023-01-11T17:51:19.761Z,80.26
2023-01-11T17:54:03.581Z,80.58
2023-01-11T17:57:15.340Z,80.57
2023-01-11T17:59:56.490Z,80.46
2023-01-11T18:02:54.589Z,80.72
2023-01-11T18:05:42.424Z,80.81
2023-01-11T18:08:28.775Z,80.85
2023-01-11T18:11:10.416Z,80.98
2023-01-11T18:14:00.694Z,80.87
2023-01-11T18:17:19.598Z,80.87
2023-01-11T18:20:08.095Z,80.98
2023-01-11T18:23:21.482Z,81.11
2023-01-11T18:26:56.933Z,81.21
2023-01-11T18:30:14.675Z,81.29
2023-01-11T18:32:56.522Z,81.36
2023-01-11T18:35:37.537Z,81.48
2023-01-11T18:38:45.505Z,81.53
2023-01-11T18:41:45.380Z,81.55
2023-01-11T18:44:35.387Z,81.43
2023-01-11T18:47:26.566Z,81.38
2023-01-11T18:50:08.812Z,81.31
2023-01-11T18:52:50.427Z,81.27
2023-01-11T18:55:38.379Z,81.17
2023-01-11T18:58:19.371Z,81.08
2023-01-11T19:01:00.575Z,81.12
2023-01-11T19:03:54.382Z,81.05
2023-01-11T19:06:29.561Z,80.99
2023-01-11T19:09:17.805Z,81.14
2023-01-11T19:11:53.126Z,81.39
2023-01-11T19:14:42.583Z,81.44
2023-01-11T19:17:23.786Z,81.49
2023-01-11T19:20:07.477Z,81.58
2023-01-11T19:23:02.384Z,81.60
2023-01-11T19:25:58.376Z,81.76
2023-01-11T19:28:48.642Z,81.98
2023-01-11T19:31:23.671Z,81.98
2023-01-11T19:34:13.842Z,81.97
2023-01-11T19:36:48.532Z,81.97
2023-01-11T19:39:36.577Z,81.76
2023-01-11T19:42:12.516Z,81.86
2023-01-11T19:45:00.415Z,82.03
2023-01-11T19:47:35.699Z,82.08
2023-01-11T19:50:26.176Z,82.05
2023-01-11T19:53:00.498Z,82.36
2023-01-11T19:55:48.570Z,82.51
2023-01-11T19:58:31.591Z,82.10
2023-01-11T20:01:27.474Z,82.06
2023-01-11T20:04:18.495Z,82.08
2023-01-11T20:07:00.401Z,81.96
2023-01-11T20:09:55.362Z,82.11
2023-01-11T20:12:43.354Z,82.29
2023-01-11T20:15:19.517Z,82.39
2023-01-11T20:18:07.366Z,82.73
2023-01-11T20:20:55.367Z,82.77
2023-01-11T20:23:46.347Z,82.67
2023-01-11T20:26:22.677Z,82.66
2023-01-11T20:29:12.354Z,82.69
2023-01-11T20:31:49.450Z,82.62
2023-01-11T20:34:37.568Z,82.78
2023-01-11T20:37:12.740Z,82.83
2023-01-11T20:40:00.490Z,82.60
2023-01-11T20:42:38.885Z,82.64
2023-01-11T20:45:26.331Z,82.78
2023-01-11T20:48:00.674Z,82.93
2023-01-11T20:50:48.544Z,82.86
2023-01-11T20:53:23.487Z,82.75
2023-01-11T20:56:12.353Z,82.88
2023-01-11T20:58:48.569Z,82.83
2023-01-11T21:01:38.306Z,82.77
2023-01-11T21:04:22.321Z,82.73
2023-01-11T21:07:17.368Z,82.78
2023-01-11T21:10:05.719Z,82.67
2023-01-11T21:15:28.762Z,82.29
2023-01-11T21:18:16.342Z,81.95
2023-01-11T21:21:04.426Z,82.18
2023-01-11T21:23:54.328Z,82.27
2023-01-11T21:26:36.357Z,82.44
2023-01-11T21:29:31.515Z,82.42
2023-01-11T21:32:20.083Z,82.76
2023-01-11T21:34:56.152Z,83.19
2023-01-11T21:37:44.876Z,83.32
2023-01-11T21:40:19.496Z,83.27
2023-01-11T21:43:07.329Z,83.19
2023-01-11T21:45:42.674Z,82.88
2023-01-11T21:48:31.955Z,83.06
2023-01-11T21:51:08.291Z,83.12
2023-01-11T21:53:57.387Z,83.11
2023-01-11T21:56:32.706Z,82.87
2023-01-11T21:59:21.383Z,82.57
2023-01-11T22:01:56.473Z,82.28
2023-01-11T22:04:44.370Z,82.04
2023-01-11T22:07:26.569Z,81.67
2023-01-11T22:10:17.320Z,81.12
2023-01-11T22:12:52.461Z,80.56
2023-01-11T22:15:40.324Z,80.65
2023-01-11T22:18:14.671Z,81.47
2023-01-11T22:21:18.337Z,80.49
2023-01-11T22:24:14.519Z,80.51
2023-01-11T22:27:02.393Z,81.25
2023-01-11T22:29:47.110Z,81.39
2023-01-11T22:32:38.337Z,81.27
2023-01-11T22:35:13.455Z,81.26
2023-01-11T22:38:01.325Z,81.14
2023-01-11T22:40:36.657Z,81.11
2023-01-11T22:43:25.312Z,80.78
2023-01-11T22:46:05.522Z,80.44
2023-01-11T22:48:55.319Z,80.57
2023-01-11T22:51:43.435Z,80.51
2023-01-11T22:54:18.979Z,80.01
2023-01-11T22:57:07.328Z,80.55
2023-01-11T22:59:48.315Z,80.21
2023-01-11T23:02:36.465Z,80.05
2023-01-11T23:05:10.732Z,80.20
2023-01-11T23:07:58.341Z,80.46
2023-01-11T23:10:39.329Z,80.80
2023-01-11T23:13:39.474Z,81.63
2023-01-11T23:16:21.335Z,81.88
2023-01-11T23:19:02.475Z,81.75
2023-01-11T23:21:46.320Z,81.57
2023-01-11T23:24:27.575Z,81.39
2023-01-11T23:27:16.364Z,80.68
2023-01-11T23:29:58.416Z,80.32
2023-01-11T23:32:53.518Z,80.72
2023-01-11T23:35:41.520Z,81.30
2023-01-11T23:38:16.508Z,81.45
2023-01-11T23:41:22.298Z,81.59
2023-01-11T23:43:57.644Z,81.43
2023-01-11T23:47:05.298Z,81.26
2023-01-11T23:49:47.332Z,81.21
2023-01-11T23:52:37.314Z,81.25
2023-01-11T23:55:20.291Z,81.03
2023-01-11T23:58:17.308Z,81.10
